createdAt,value
2018-05-02T00:01:17.619Z,66.64
2018-05-02T00:03:45.799Z,66.74
2018-05-02T00:06:14.412Z,66.62
2018-05-02T00:08:42.656Z,66.68
2018-05-02T00:11:10.898Z,66.84
2018-05-02T00:13:39.573Z,66.57
2018-05-02T00:16:07.767Z,66.63
2018-05-02T00:18:36.045Z,66.48
2018-05-02T00:21:04.630Z,66.34
2018-05-02T00:23:32.816Z,66.38
2018-05-02T00:26:01.023Z,66.39
2018-05-02T00:28:29.771Z,66.56
2018-05-02T00:30:57.942Z,66.55
2018-05-02T00:33:26.131Z,66.57
2018-05-02T00:35:54.845Z,66.62
2018-05-02T00:38:23.048Z,66.79
2018-05-02T00:40:51.238Z,66.98
2018-05-02T00:45:45.709Z,67.42
2018-05-02T00:48:14.007Z,67.25
2018-05-02T00:50:42.266Z,67.39
2018-05-02T00:53:11.048Z,67.56
2018-05-02T00:55:39.319Z,67.41
2018-05-02T00:58:31.979Z,67.57
2018-05-02T01:01:06.089Z,67.62
2018-05-02T01:03:34.381Z,67.49
2018-05-02T01:06:02.565Z,67.77
2018-05-02T01:08:31.201Z,67.82
2018-05-02T01:10:59.426Z,67.93
2018-05-02T01:13:27.617Z,68.06
2018-05-02T01:15:56.432Z,68.18
2018-05-02T01:18:24.697Z,68.12
2018-05-02T01:20:52.893Z,68.25
2018-05-02T01:23:21.422Z,68.48
2018-05-02T01:25:49.636Z,68.46
2018-05-02T01:28:17.810Z,68.67
2018-05-02T01:30:46.588Z,68.84
2018-05-02T01:33:14.783Z,69.11
2018-05-02T01:35:42.981Z,69.20
2018-05-02T01:38:11.738Z,69.36
2018-05-02T01:40:39.963Z,69.51
2018-05-02T01:43:08.143Z,69.30
2018-05-02T01:45:36.750Z,69.25
2018-05-02T01:48:04.981Z,69.25
2018-05-02T01:50:33.193Z,69.23
2018-05-02T01:53:01.971Z,69.16
2018-05-02T01:55:30.224Z,69.36
2018-05-02T01:57:58.418Z,69.08
2018-05-02T02:00:27.013Z,69.20
2018-05-02T02:02:55.219Z,69.31
2018-05-02T02:05:23.462Z,69.34
2018-05-02T02:07:52.149Z,69.33
2018-05-02T02:10:20.422Z,69.25
2018-05-02T02:12:48.623Z,69.39
2018-05-02T02:15:17.282Z,69.28
2018-05-02T02:17:45.504Z,69.13
2018-05-02T02:20:13.706Z,69.27
2018-05-02T02:22:42.389Z,69.42
2018-05-02T02:25:10.649Z,69.50
2018-05-02T02:27:38.887Z,69.48
2018-05-02T02:30:07.556Z,69.47
2018-05-02T02:32:35.777Z,69.93
2018-05-02T02:35:03.996Z,69.81
2018-05-02T02:37:32.577Z,69.69
2018-05-02T02:40:00.802Z,69.70
2018-05-02T02:42:31.845Z,69.79
2018-05-02T02:45:00.042Z,69.90
2018-05-02T02:47:28.734Z,70.18
2018-05-02T02:49:57.375Z,70.00
2018-05-02T02:52:25.575Z,70.14
2018-05-02T02:54:53.797Z,70.24
2018-05-02T02:57:22.321Z,70.39
2018-05-02T02:59:50.520Z,70.25
2018-05-02T03:02:18.732Z,70.43
2018-05-02T03:04:47.547Z,70.26
2018-05-02T03:07:15.735Z,70.41
2018-05-02T03:09:43.996Z,70.23
2018-05-02T03:12:12.619Z,70.67
2018-05-02T03:14:40.943Z,70.56
2018-05-02T03:17:09.680Z,70.27
2018-05-02T03:19:38.320Z,70.43
2018-05-02T03:22:06.527Z,70.33
2018-05-02T03:24:34.747Z,70.42
2018-05-02T03:27:03.299Z,70.69
2018-05-02T03:29:31.523Z,70.80
2018-05-02T03:31:59.859Z,71.05
2018-05-02T03:34:28.361Z,71.03
2018-05-02T03:36:56.554Z,70.90
2018-05-02T03:39:24.886Z,71.23
2018-05-02T03:41:53.391Z,70.98
2018-05-02T03:44:21.601Z,71.01
2018-05-02T03:46:49.921Z,70.99
2018-05-02T03:49:18.529Z,70.78
2018-05-02T03:51:46.761Z,71.35
2018-05-02T03:54:15.166Z,70.96
2018-05-02T03:56:43.708Z,71.19
2018-05-02T03:59:11.987Z,71.33
2018-05-02T04:01:52.137Z,71.36
2018-05-02T04:07:25.648Z,72.10
2018-05-02T04:09:54.347Z,71.51
2018-05-02T04:12:22.588Z,71.58
2018-05-02T04:14:50.786Z,71.73
2018-05-02T04:17:19.428Z,71.62
2018-05-02T04:19:47.658Z,71.58
2018-05-02T04:22:15.881Z,71.23
2018-05-02T04:24:44.636Z,71.24
2018-05-02T04:27:12.883Z,71.08
2018-05-02T04:29:41.071Z,71.02
2018-05-02T04:32:09.726Z,70.81
2018-05-02T04:34:37.980Z,70.73
2018-05-02T04:37:06.198Z,70.65
2018-05-02T04:39:34.770Z,70.77
2018-05-02T04:42:03.044Z,70.63
2018-05-02T04:44:31.226Z,70.29
2018-05-02T04:46:59.983Z,70.04
2018-05-02T04:49:28.195Z,70.31
2018-05-02T04:51:56.370Z,70.37
2018-05-02T04:54:25.135Z,70.40
2018-05-02T04:56:53.401Z,70.09
2018-05-02T04:59:21.592Z,70.22
2018-05-02T05:01:50.188Z,70.31
2018-05-02T05:04:18.453Z,70.47
2018-05-02T05:06:46.668Z,70.51
2018-05-02T05:09:15.384Z,70.23
2018-05-02T05:11:43.601Z,70.16
2018-05-02T05:14:11.885Z,70.02
2018-05-02T05:16:40.405Z,69.98
2018-05-02T05:19:08.652Z,70.27
2018-05-02T05:21:36.976Z,70.17
2018-05-02T05:24:05.670Z,69.98
2018-05-02T05:26:33.878Z,69.93
2018-05-02T05:29:02.333Z,70.10
2018-05-02T05:31:30.840Z,69.67
2018-05-02T05:33:59.069Z,69.53
2018-05-02T05:36:27.328Z,69.77
2018-05-02T05:38:55.998Z,69.55
2018-05-02T05:41:24.314Z,69.33
2018-05-02T05:43:52.564Z,69.02
2018-05-02T05:46:21.294Z,68.65
2018-05-02T05:48:49.760Z,68.54
2018-05-02T05:51:18.007Z,68.48
2018-05-02T05:53:55.614Z,67.91
2018-05-02T05:56:46.343Z,68.18
2018-05-02T05:59:30.434Z,67.60
2018-05-02T06:02:10.442Z,67.73
2018-05-02T06:05:00.485Z,67.84
2018-05-02T06:08:02.589Z,67.75
2018-05-02T06:10:38.204Z,67.66
2018-05-02T06:13:12.121Z,67.46
2018-05-02T06:15:42.402Z,67.06
2018-05-02T06:18:11.058Z,67.02
2018-05-02T06:20:39.303Z,67.40
2018-05-02T06:23:07.561Z,66.82
2018-05-02T06:25:46.184Z,66.95
2018-05-02T06:28:29.047Z,66.49
2018-05-02T06:31:04.150Z,66.49
2018-05-02T06:33:41.705Z,66.60
2018-05-02T06:36:17.452Z,66.61
2018-05-02T06:38:51.094Z,65.70
2018-05-02T06:41:28.901Z,65.59
2018-05-02T06:44:14.721Z,65.47
2018-05-02T06:46:50.909Z,64.92
2018-05-02T06:49:27.604Z,64.60
2018-05-02T06:52:02.561Z,64.46
2018-05-02T06:54:38.962Z,64.00
2018-05-02T06:57:09.781Z,63.38
2018-05-02T06:59:44.438Z,63.36
2018-05-02T07:02:19.387Z,61.62
2018-05-02T07:04:55.011Z,61.79
2018-05-02T07:07:25.583Z,61.35
2018-05-02T07:10:03.081Z,61.10
2018-05-02T07:12:45.037Z,61.81
2018-05-02T07:15:35.172Z,60.66
2018-05-02T07:18:18.478Z,61.60
2018-05-02T07:20:53.702Z,60.85
2018-05-02T07:23:27.250Z,61.21
2018-05-02T07:26:07.415Z,60.95
2018-05-02T07:28:43.713Z,60.99
2018-05-02T07:31:32.641Z,61.13
2018-05-02T07:34:14.888Z,60.87
2018-05-02T07:36:48.268Z,59.80
2018-05-02T07:39:25.398Z,59.93
2018-05-02T07:42:04.126Z,58.96
2018-05-02T07:44:48.877Z,59.30
2018-05-02T07:47:23.094Z,59.07
2018-05-02T07:49:57.370Z,59.32
2018-05-02T07:52:33.888Z,58.02
2018-05-02T07:55:12.304Z,57.74
2018-05-02T07:57:44.991Z,56.46
2018-05-02T08:00:21.759Z,54.53
2018-05-02T08:02:57.211Z,55.29
2018-05-02T08:05:30.292Z,55.23
2018-05-02T08:08:06.711Z,54.89
2018-05-02T08:10:39.609Z,54.44
2018-05-02T08:13:19.914Z,54.39
2018-05-02T08:16:07.724Z,54.03
2018-05-02T08:18:40.424Z,54.51
2018-05-02T08:21:09.709Z,54.42
2018-05-02T08:23:38.443Z,52.49
2018-05-02T08:26:06.694Z,50.92
2018-05-02T08:28:34.941Z,51.39
2018-05-02T08:31:03.681Z,52.03
2018-05-02T08:33:31.864Z,51.28
2018-05-02T08:36:00.489Z,52.42
2018-05-02T08:38:29.350Z,51.42
2018-05-02T08:40:57.566Z,51.04
2018-05-02T08:43:25.797Z,50.49
2018-05-02T08:45:54.441Z,50.83
2018-05-02T08:48:22.651Z,49.79
2018-05-02T08:50:51.820Z,48.33
2018-05-02T08:53:21.743Z,49.11
2018-05-02T08:55:50.320Z,49.62
2018-05-02T08:58:18.527Z,50.01
2018-05-02T09:00:46.884Z,50.48
2018-05-02T09:03:15.438Z,50.04
2018-05-02T09:05:43.676Z,50.24
2018-05-02T09:08:11.930Z,50.52
2018-05-02T09:10:41.178Z,50.60
2018-05-02T09:13:09.994Z,50.48
2018-05-02T09:15:38.644Z,50.25
2018-05-02T09:18:06.984Z,51.97
2018-05-02T09:20:35.694Z,51.52
2018-05-02T09:23:03.911Z,51.84
2018-05-02T09:25:32.178Z,50.89
2018-05-02T09:28:00.844Z,50.77
2018-05-02T09:30:29.065Z,50.46
2018-05-02T09:32:57.379Z,50.11
2018-05-02T09:35:26.724Z,51.03
2018-05-02T09:37:55.328Z,49.66
2018-05-02T09:40:23.584Z,49.07
2018-05-02T09:42:51.818Z,49.13
2018-05-02T09:45:20.600Z,47.86
2018-05-02T09:47:48.811Z,46.44
2018-05-02T09:50:17.063Z,47.06
2018-05-02T09:52:45.689Z,48.46
2018-05-02T09:55:13.918Z,46.73
2018-05-02T09:57:42.122Z,46.78
2018-05-02T10:00:11.437Z,46.40
2018-05-02T10:02:39.654Z,46.34
2018-05-02T10:05:08.403Z,46.22
2018-05-02T10:07:36.953Z,46.00
2018-05-02T10:10:05.265Z,45.32
2018-05-02T10:12:34.476Z,44.71
2018-05-02T10:15:02.621Z,43.83
2018-05-02T10:17:31.336Z,43.50
2018-05-02T10:19:59.539Z,44.30
2018-05-02T10:22:27.749Z,44.17
2018-05-02T10:24:56.453Z,43.68
2018-05-02T10:27:24.665Z,42.09
2018-05-02T10:29:52.951Z,40.71
2018-05-02T10:32:21.620Z,40.74
2018-05-02T10:34:49.912Z,40.69
2018-05-02T10:37:18.113Z,40.57
2018-05-02T10:39:46.759Z,40.86
2018-05-02T10:42:15.044Z,41.31
2018-05-02T10:44:43.293Z,41.79
2018-05-02T10:47:11.903Z,40.99
2018-05-02T10:49:40.118Z,39.82
2018-05-02T10:52:08.318Z,39.77
2018-05-02T10:54:37.058Z,40.50
2018-05-02T10:57:05.289Z,42.00
2018-05-02T10:59:33.505Z,41.13
2018-05-02T11:02:02.315Z,39.50
2018-05-02T11:04:30.517Z,38.54
2018-05-02T11:06:58.719Z,37.53
2018-05-02T11:09:27.398Z,36.63
2018-05-02T11:11:56.129Z,36.41
2018-05-02T11:14:24.602Z,36.87
2018-05-02T11:16:53.221Z,35.98
2018-05-02T11:19:21.498Z,35.75
2018-05-02T11:21:49.819Z,36.29
2018-05-02T11:24:18.355Z,35.75
2018-05-02T11:26:46.620Z,35.94
2018-05-02T11:29:14.952Z,35.29
2018-05-02T11:31:44.282Z,35.91
2018-05-02T11:34:12.992Z,37.42
2018-05-02T11:36:41.159Z,36.08
2018-05-02T11:39:09.395Z,35.20
2018-05-02T11:41:38.213Z,35.79
2018-05-02T11:44:06.400Z,35.83
2018-05-02T11:46:34.647Z,35.36
2018-05-02T11:49:03.225Z,36.19
2018-05-02T11:51:31.411Z,36.44
2018-05-02T11:53:59.821Z,34.93
2018-05-02T11:56:28.579Z,34.40
2018-05-02T11:58:56.856Z,34.67
2018-05-02T12:01:25.053Z,34.14
2018-05-02T12:03:53.783Z,33.79
2018-05-02T12:06:22.019Z,34.37
2018-05-02T12:08:50.248Z,32.84
2018-05-02T12:11:18.889Z,31.98
2018-05-02T12:13:47.090Z,31.62
2018-05-02T12:16:15.411Z,31.18
2018-05-02T12:18:44.130Z,31.61
2018-05-02T12:21:12.384Z,31.47
2018-05-02T12:23:40.610Z,32.06
2018-05-02T12:26:09.330Z,30.94
2018-05-02T12:28:37.542Z,31.39
2018-05-02T12:31:05.798Z,32.30
2018-05-02T12:33:34.396Z,31.42
2018-05-02T12:36:02.618Z,31.71
2018-05-02T12:38:31.208Z,31.89
2018-05-02T12:40:59.668Z,30.58
2018-05-02T12:43:27.888Z,30.96
2018-05-02T12:45:56.137Z,29.82
2018-05-02T12:48:24.985Z,29.65
2018-05-02T12:50:53.207Z,29.52
2018-05-02T12:53:21.404Z,29.77
2018-05-02T12:55:50.065Z,27.79
2018-05-02T12:58:18.267Z,29.58
2018-05-02T13:00:46.493Z,28.06
2018-05-02T13:03:15.173Z,28.27
2018-05-02T13:05:43.403Z,28.65
2018-05-02T13:08:11.737Z,27.47
2018-05-02T13:10:40.445Z,27.34
2018-05-02T13:13:08.628Z,27.00
2018-05-02T13:15:36.867Z,28.12
2018-05-02T13:18:05.478Z,27.74
2018-05-02T13:20:33.660Z,28.26
2018-05-02T13:23:01.913Z,28.49
2018-05-02T13:25:30.640Z,28.03
2018-05-02T13:27:58.814Z,27.27
2018-05-02T13:30:27.099Z,27.26
2018-05-02T13:32:55.889Z,27.75
2018-05-02T13:35:24.141Z,26.61
2018-05-02T13:37:52.325Z,26.93
2018-05-02T13:40:21.019Z,26.67
2018-05-02T13:42:49.348Z,27.78
2018-05-02T13:45:17.573Z,26.99
2018-05-02T13:47:46.095Z,26.88
2018-05-02T13:50:14.296Z,27.83
2018-05-02T13:52:42.530Z,27.56
2018-05-02T13:55:11.282Z,26.93
2018-05-02T13:57:39.494Z,27.22
2018-05-02T14:00:07.736Z,26.53
2018-05-02T14:02:36.465Z,27.22
2018-05-02T14:05:04.678Z,27.91
2018-05-02T14:07:32.972Z,27.53
2018-05-02T14:10:01.731Z,27.58
2018-05-02T14:12:30.221Z,27.18
2018-05-02T14:14:58.798Z,27.39
2018-05-02T14:17:27.517Z,27.57
2018-05-02T14:19:55.773Z,26.58
2018-05-02T14:22:23.991Z,27.15
2018-05-02T14:24:52.527Z,27.55
2018-05-02T14:27:20.710Z,27.49
2018-05-02T14:29:49.084Z,27.00
2018-05-02T14:32:17.827Z,25.86
2018-05-02T14:34:46.045Z,26.02
2018-05-02T14:37:14.379Z,25.79
2018-05-02T14:39:42.946Z,26.42
2018-05-02T14:42:11.159Z,26.28
2018-05-02T14:44:39.558Z,27.72
2018-05-02T14:47:08.126Z,27.14
2018-05-02T14:49:36.321Z,26.73
2018-05-02T14:52:04.775Z,25.72
2018-05-02T14:54:33.407Z,25.40
2018-05-02T14:57:01.604Z,25.97
2018-05-02T14:59:29.863Z,26.55
2018-05-02T15:01:58.571Z,26.64
2018-05-02T15:04:26.758Z,26.44
2018-05-02T15:06:55.128Z,26.28
2018-05-02T15:09:24.041Z,27.35
2018-05-02T15:11:52.266Z,27.40
2018-05-02T15:14:20.448Z,27.60
2018-05-02T15:16:48.960Z,28.32
2018-05-02T15:19:17.192Z,27.78
2018-05-02T15:21:45.443Z,28.37
2018-05-02T15:24:14.836Z,28.49
2018-05-02T15:26:43.501Z,28.38
2018-05-02T15:29:11.739Z,28.78
2018-05-02T15:31:40.005Z,29.60
2018-05-02T15:34:08.847Z,29.47
2018-05-02T15:36:37.057Z,30.73
2018-05-02T15:39:06.052Z,30.21
2018-05-02T15:41:34.511Z,30.01
2018-05-02T15:44:02.705Z,30.17
2018-05-02T15:46:31.233Z,30.73
2018-05-02T15:48:59.795Z,30.68
2018-05-02T15:51:28.020Z,30.67
2018-05-02T15:53:56.297Z,30.35
2018-05-02T15:56:24.810Z,30.95
2018-05-02T15:58:53.042Z,30.84
2018-05-02T16:01:21.393Z,31.05
2018-05-02T16:03:50.040Z,30.53
2018-05-02T16:06:18.226Z,31.80
2018-05-02T16:08:46.522Z,30.71
2018-05-02T16:11:15.079Z,30.53
2018-05-02T16:13:43.392Z,31.27
2018-05-02T16:16:11.669Z,31.33
2018-05-02T16:18:40.487Z,30.74
2018-05-02T16:21:08.697Z,31.23
2018-05-02T16:23:36.931Z,30.89
2018-05-02T16:26:05.555Z,30.78
2018-05-02T16:28:33.767Z,30.27
2018-05-02T16:31:02.009Z,29.89
2018-05-02T16:33:30.748Z,30.66
2018-05-02T16:35:59.008Z,30.37
2018-05-02T16:38:27.215Z,30.03
2018-05-02T16:40:55.780Z,30.39
2018-05-02T16:43:24.015Z,30.93
2018-05-02T16:45:52.404Z,31.37
2018-05-02T16:48:21.021Z,30.92
2018-05-02T16:50:49.239Z,31.39
2018-05-02T16:53:17.508Z,31.36
2018-05-02T16:55:46.153Z,31.37
2018-05-02T16:58:14.360Z,31.54
2018-05-02T17:00:42.715Z,31.67
2018-05-02T17:03:11.930Z,31.51
2018-05-02T17:05:40.868Z,31.76
2018-05-02T17:08:09.212Z,31.47
2018-05-02T17:10:37.991Z,31.71
2018-05-02T17:13:06.454Z,32.47
2018-05-02T17:15:34.676Z,32.01
2018-05-02T17:18:03.003Z,32.18
2018-05-02T17:20:31.712Z,32.52
2018-05-02T17:22:59.919Z,32.13
2018-05-02T17:25:28.149Z,32.27
2018-05-02T17:27:56.726Z,32.36
2018-05-02T17:30:24.925Z,32.59
2018-05-02T17:32:53.367Z,32.64
2018-05-02T17:35:21.925Z,32.37
2018-05-02T17:37:50.139Z,33.01
2018-05-02T17:40:18.437Z,32.50
2018-05-02T17:42:46.991Z,33.00
2018-05-02T17:45:15.203Z,32.93
2018-05-02T17:47:43.780Z,32.98
2018-05-02T17:50:12.605Z,33.38
2018-05-02T17:52:40.841Z,33.82
2018-05-02T17:55:09.057Z,33.48
2018-05-02T17:57:37.595Z,33.50
2018-05-02T18:00:05.848Z,33.67
2018-05-02T18:02:34.062Z,33.66
2018-05-02T18:05:02.699Z,33.64
2018-05-02T18:07:31.101Z,34.56
2018-05-02T18:09:59.313Z,33.37
2018-05-02T18:12:27.873Z,33.77
2018-05-02T18:14:56.112Z,34.27
2018-05-02T18:17:24.312Z,33.94
2018-05-02T18:19:53.046Z,33.93
2018-05-02T18:22:21.269Z,34.56
2018-05-02T18:24:49.462Z,34.75
2018-05-02T18:27:18.804Z,34.76
2018-05-02T18:29:47.794Z,34.69
2018-05-02T18:32:16.077Z,35.08
2018-05-02T18:34:44.297Z,35.05
2018-05-02T18:37:12.583Z,35.41
2018-05-02T18:39:40.818Z,35.83
2018-05-02T18:42:09.740Z,35.21
2018-05-02T18:44:39.356Z,35.53
2018-05-02T18:47:07.784Z,35.94
2018-05-02T18:49:36.074Z,39.10
2018-05-02T18:52:04.925Z,36.00
2018-05-02T18:54:33.655Z,36.28
2018-05-02T18:57:01.955Z,36.55
2018-05-02T18:59:30.722Z,36.67
2018-05-02T19:01:59.428Z,37.10
2018-05-02T19:04:27.704Z,37.20
2018-05-02T19:06:55.972Z,37.63
2018-05-02T19:09:24.872Z,37.78
2018-05-02T19:11:53.839Z,37.87
2018-05-02T19:14:22.144Z,38.56
2018-05-02T19:16:51.001Z,39.61
2018-05-02T19:19:25.501Z,38.63
2018-05-02T19:21:53.798Z,38.50
2018-05-02T19:24:23.529Z,39.08
2018-05-02T19:26:52.812Z,38.76
2018-05-02T19:29:21.578Z,39.36
2018-05-02T19:31:56.222Z,39.23
2018-05-02T19:34:25.789Z,39.79
2018-05-02T19:36:54.998Z,39.93
2018-05-02T19:39:23.286Z,39.83
2018-05-02T19:41:57.758Z,40.16
2018-05-02T19:44:26.359Z,40.02
2018-05-02T19:46:55.511Z,40.18
2018-05-02T19:49:24.653Z,40.82
2018-05-02T19:51:58.605Z,40.38
2018-05-02T19:54:27.532Z,40.16
2018-05-02T19:56:56.197Z,40.71
2018-05-02T19:59:25.281Z,41.08
2018-05-02T20:01:59.202Z,40.77
2018-05-02T20:04:27.395Z,41.09
2018-05-02T20:06:56.372Z,41.38
2018-05-02T20:09:30.373Z,41.41
2018-05-02T20:12:04.264Z,41.92
2018-05-02T20:14:32.463Z,42.38
2018-05-02T20:17:01.113Z,42.59
2018-05-02T20:19:29.387Z,42.76
2018-05-02T20:21:57.624Z,43.47
2018-05-02T20:24:26.468Z,43.85
2018-05-02T20:26:54.724Z,44.33
2018-05-02T20:29:23.005Z,44.15
2018-05-02T20:31:51.676Z,44.10
2018-05-02T20:34:20.001Z,44.41
2018-05-02T20:36:48.225Z,44.98
2018-05-02T20:39:17.182Z,44.95
2018-05-02T20:41:45.916Z,45.84
2018-05-02T20:44:14.107Z,45.38
2018-05-02T20:46:42.350Z,45.64
2018-05-02T20:49:11.085Z,45.59
2018-05-02T20:51:39.288Z,46.05
2018-05-02T20:54:08.147Z,46.81
2018-05-02T20:56:36.886Z,46.42
2018-05-02T20:59:05.141Z,46.49
2018-05-02T21:01:33.344Z,46.94
2018-05-02T21:04:01.954Z,47.03
2018-05-02T21:06:30.172Z,47.23
2018-05-02T21:08:58.573Z,46.88
2018-05-02T21:11:27.047Z,47.05
2018-05-02T21:13:55.277Z,47.81
2018-05-02T21:16:23.536Z,48.31
2018-05-02T21:18:52.172Z,47.70
2018-05-02T21:21:20.388Z,47.65
2018-05-02T21:23:48.906Z,47.89
2018-05-02T21:26:17.655Z,48.15
2018-05-02T21:28:45.980Z,48.28
2018-05-02T21:31:14.171Z,48.05
2018-05-02T21:33:43.010Z,48.35
2018-05-02T21:36:11.246Z,48.20
2018-05-02T21:38:39.515Z,48.27
2018-05-02T21:41:08.207Z,48.17
2018-05-02T21:43:36.556Z,48.29
2018-05-02T21:46:04.987Z,49.14
2018-05-02T21:48:33.698Z,48.47
2018-05-02T21:51:02.387Z,48.30
2018-05-02T21:53:30.608Z,50.19
2018-05-02T21:55:58.835Z,48.54
2018-05-02T21:58:27.526Z,49.23
2018-05-02T22:00:56.500Z,49.12
2018-05-02T22:03:24.706Z,49.18
2018-05-02T22:05:53.226Z,48.75
2018-05-02T22:08:37.147Z,49.59
2018-05-02T22:11:09.197Z,49.03
2018-05-02T22:13:37.924Z,49.43
2018-05-02T22:16:06.703Z,49.23
2018-05-02T22:18:35.056Z,49.31
2018-05-02T22:21:03.605Z,49.30
2018-05-02T22:23:31.853Z,49.11
2018-05-02T22:26:00.152Z,48.97
2018-05-02T22:28:33.021Z,49.76
2018-05-02T22:31:01.233Z,50.61
2018-05-02T22:33:29.497Z,49.25
2018-05-02T22:35:58.288Z,49.41
2018-05-02T22:38:26.520Z,49.36
2018-05-02T22:48:36.760Z,50.51
2018-05-02T22:51:05.414Z,49.97
2018-05-02T22:53:33.620Z,50.58
2018-05-02T22:56:01.822Z,49.13
2018-05-02T22:58:30.549Z,49.13
2018-05-02T23:00:58.749Z,48.94
2018-05-02T23:03:26.985Z,49.07
2018-05-02T23:05:55.685Z,49.14
2018-05-02T23:08:23.899Z,49.02
2018-05-02T23:10:52.138Z,48.63
2018-05-02T23:13:20.948Z,49.57
2018-05-02T23:15:49.151Z,50.67
2018-05-02T23:18:17.380Z,50.19
2018-05-02T23:20:45.984Z,49.05
2018-05-02T23:23:14.203Z,50.01
2018-05-02T23:25:42.465Z,49.16
2018-05-02T23:28:11.211Z,49.21
2018-05-02T23:30:39.391Z,49.97
2018-05-02T23:33:07.638Z,51.33
2018-05-02T23:35:36.403Z,50.63
2018-05-02T23:38:04.600Z,51.38
2018-05-02T23:40:32.870Z,52.57
2018-05-02T23:43:01.729Z,51.78
2018-05-02T23:45:30.001Z,52.01
2018-05-02T23:47:58.730Z,52.38
2018-05-02T23:50:27.544Z,51.47
2018-05-02T23:52:55.744Z,52.53
2018-05-02T23:55:23.926Z,53.48
2018-05-02T23:57:52.672Z,54.35
